Time;durP1;ratioP1;P1;durP2;ratioP2;P2;SDS_P1;SDS_P2;PMS_P1;PMS_P2;Temp;Humidity;BMP_temperature;BMP_pressure;BME280_temperature;BME280_humidity;BME280_pressure;Samples;Min_cycle;Max_cycle;Signal;HPM_P1;HPM_P2
2023/09/25 00:01:57;;;;;;;8.52;3.90;;;;;;;-148.88;100.00;-17125.47;5035874;28;20025;-74
2023/09/25 00:04:25;;;;;;;6.57;3.67;;;;;;;-148.88;100.00;-17125.47;5036071;28;20079;-74
2023/09/25 00:06:51;;;;;;;6.82;4.15;;;;;;;-148.88;100.00;-17125.47;5034504;28;20081;-74
2023/09/25 00:09:17;;;;;;;8.70;4.03;;;;;;;-148.88;100.00;-17125.47;5035776;28;20026;-74
2023/09/25 00:11:42;;;;;;;5.22;3.97;;;;;;;-148.88;100.00;-17125.47;5035707;28;20034;-74
2023/09/25 00:14:08;;;;;;;4.85;3.58;;;;;;;-148.88;100.00;-17125.47;5034450;28;20028;-74
2023/09/25 00:16:34;;;;;;;5.10;3.90;;;;;;;-148.88;100.00;-17125.47;5035710;28;20057;-74
2023/09/25 00:19:00;;;;;;;6.20;4.03;;;;;;;-148.88;100.00;-17125.47;5034168;28;20426;-74
2023/09/25 00:21:25;;;;;;;6.97;4.25;;;;;;;-148.88;100.00;-17125.47;5034305;28;20057;-74
2023/09/25 00:23:51;;;;;;;5.72;4.05;;;;;;;-148.88;100.00;-17125.47;5035514;28;20117;-74
2023/09/25 00:26:16;;;;;;;5.63;3.65;;;;;;;-148.88;100.00;-17125.47;5035443;28;20029;-74
2023/09/25 00:28:42;;;;;;;6.13;3.92;;;;;;;-148.88;100.00;-17125.47;5035404;28;20045;-74
2023/09/25 00:31:09;;;;;;;5.25;3.67;;;;;;;-148.88;100.00;-17125.47;5035672;28;20029;-74
2023/09/25 00:33:34;;;;;;;5.20;3.63;;;;;;;-148.88;100.00;-17125.47;5034047;28;20036;-74
2023/09/25 00:36:00;;;;;;;4.80;3.63;;;;;;;-148.88;100.00;-17125.47;5035235;28;20025;-74
2023/09/25 00:38:25;;;;;;;5.10;3.60;;;;;;;-148.88;100.00;-17125.47;5035164;28;20086;-74
2023/09/25 00:40:51;;;;;;;6.78;3.65;;;;;;;-148.88;100.00;-17125.47;5035198;28;20041;-74
2023/09/25 00:43:16;;;;;;;4.43;3.63;;;;;;;-148.88;100.00;-17125.47;5035050;28;20083;-74
2023/09/25 00:45:44;;;;;;;5.15;3.88;;;;;;;-148.88;100.00;-17125.47;5035382;28;20096;-74
2023/09/25 00:48:24;;;;;;;6.57;4.00;;;;;;;-148.88;100.00;-17125.47;5035239;28;20036;-74
2023/09/25 00:50:49;;;;;;;5.68;3.60;;;;;;;-148.88;100.00;-17125.47;5035290;28;20051;-74
2023/09/25 00:53:15;;;;;;;5.22;3.28;;;;;;;-148.88;100.00;-17125.47;5035002;28;20482;-74
2023/09/25 00:55:41;;;;;;;5.60;3.60;;;;;;;-148.88;100.00;-17125.47;5035003;28;20096;-74
2023/09/25 00:58:07;;;;;;;7.55;3.65;;;;;;;-148.88;100.00;-17125.47;5034883;28;20030;-74
2023/09/25 01:00:35;;;;;;;4.13;3.50;;;;;;;-148.88;100.00;-17125.47;5035275;28;20060;-74
2023/09/25 01:03:01;;;;;;;4.50;3.53;;;;;;;-148.88;100.00;-17125.47;5034828;28;20048;-74
2023/09/25 01:05:26;;;;;;;4.53;3.60;;;;;;;-148.88;100.00;-17125.47;5034688;28;20025;-74
2023/09/25 01:07:52;;;;;;;3.85;3.33;;;;;;;-148.88;100.00;-17125.47;5034650;28;20079;-74
2023/09/25 01:10:19;;;;;;;4.95;3.78;;;;;;;-148.88;100.00;-17125.47;5034147;28;20489;-74
2023/09/25 01:12:46;;;;;;;4.65;3.30;;;;;;;-148.88;100.00;-17125.47;5033396;28;20551;-74
2023/09/25 01:15:13;;;;;;;5.72;3.55;;;;;;;-148.88;100.00;-17125.47;5033397;28;20021;-74
2023/09/25 01:17:39;;;;;;;5.05;3.50;;;;;;;-148.88;100.00;-17125.47;5033105;28;20021;-74
2023/09/25 01:20:15;;;;;;;6.00;3.97;;;;;;;-148.88;100.00;-17125.47;5033114;28;20028;-74
2023/09/25 01:22:41;;;;;;;5.00;3.67;;;;;;;-148.88;100.00;-17125.47;5033090;28;20025;-74
2023/09/25 01:25:10;;;;;;;4.95;3.80;;;;;;;-148.88;100.00;-17125.47;5034392;28;20091;-74
2023/09/25 01:27:38;;;;;;;4.47;3.53;;;;;;;-148.88;100.00;-17125.47;5033187;28;20030;-74
2023/09/25 01:30:04;;;;;;;7.25;3.95;;;;;;;-148.88;100.00;-17125.47;5032919;28;20498;-74
2023/09/25 01:32:30;;;;;;;5.15;3.85;;;;;;;-148.88;100.00;-17125.47;5034357;28;20037;-74
2023/09/25 01:34:55;;;;;;;4.68;3.75;;;;;;;-148.88;100.00;-17125.47;5034298;28;20013;-74
2023/09/25 01:37:21;;;;;;;5.65;4.03;;;;;;;-148.88;100.00;-17125.47;5032959;28;20080;-74
2023/09/25 01:39:46;;;;;;;5.05;4.07;;;;;;;-148.88;100.00;-17125.47;5034375;28;20029;-74
2023/09/25 01:42:12;;;;;;;5.90;4.38;;;;;;;-148.88;100.00;-17125.47;5034186;28;20448;-74
2023/09/25 01:44:37;;;;;;;6.25;4.03;;;;;;;-148.88;100.00;-17125.47;5034136;28;20017;-74
2023/09/25 01:47:03;;;;;;;8.27;4.25;;;;;;;-148.88;100.00;-17125.47;5032636;28;20111;-74
2023/09/25 01:49:30;;;;;;;5.95;4.15;;;;;;;-148.88;100.00;-17125.47;5033953;28;20112;-74
2023/09/25 01:51:56;;;;;;;5.90;4.35;;;;;;;-148.88;100.00;-17125.47;5033988;28;20033;-74
2023/09/25 01:54:21;;;;;;;6.30;4.07;;;;;;;-148.88;100.00;-17125.47;5034018;28;20024;-74
2023/09/25 01:56:47;;;;;;;5.53;3.88;;;;;;;-148.88;100.00;-17125.47;5033801;28;20025;-74
2023/09/25 01:59:12;;;;;;;6.40;4.05;;;;;;;-148.88;100.00;-17125.47;5032507;28;20093;-74
2023/09/25 02:01:39;;;;;;;5.43;4.15;;;;;;;-148.88;100.00;-17125.47;5033810;28;20026;-74
2023/09/25 02:04:04;;;;;;;4.78;4.25;;;;;;;-148.88;100.00;-17125.47;5033751;28;20504;-75
2023/09/25 02:06:33;;;;;;;5.88;3.95;;;;;;;-148.88;100.00;-17125.47;5033661;28;20029;-74
2023/09/25 02:08:59;;;;;;;4.55;4.05;;;;;;;-148.88;100.00;-17125.47;5033526;28;20036;-74
2023/09/25 02:11:24;;;;;;;5.40;4.47;;;;;;;-148.88;100.00;-17125.47;5033805;28;20116;-74
2023/09/25 02:13:49;;;;;;;4.63;3.80;;;;;;;-148.88;100.00;-17125.47;5034074;28;20030;-74
2023/09/25 02:16:15;;;;;;;6.47;3.67;;;;;;;-148.88;100.00;-17125.47;5033771;28;20049;-74
2023/09/25 02:18:40;;;;;;;4.47;3.65;;;;;;;-148.88;100.00;-17125.47;5031937;28;20029;-74
2023/09/25 02:21:06;;;;;;;7.82;3.70;;;;;;;-148.88;100.00;-17125.47;5032352;28;20036;-74
2023/09/25 02:23:31;;;;;;;6.30;3.58;;;;;;;-148.88;100.00;-17125.47;5032121;28;20028;-74
2023/09/25 02:25:57;;;;;;;4.97;3.42;;;;;;;-148.88;100.00;-17125.47;5033205;28;20029;-74
2023/09/25 02:28:22;;;;;;;8.40;3.95;;;;;;;-148.88;100.00;-17125.47;5033078;28;20025;-74
2023/09/25 02:30:47;;;;;;;5.53;3.58;;;;;;;-148.88;100.00;-17125.47;5033821;28;20021;-74
2023/09/25 02:33:13;;;;;;;4.82;3.42;;;;;;;-148.88;100.00;-17125.47;5033303;28;20044;-74
2023/09/25 02:35:38;;;;;;;5.65;3.55;;;;;;;-148.88;100.00;-17125.47;5031719;28;20394;-74
2023/09/25 02:38:05;;;;;;;5.43;3.60;;;;;;;-148.88;100.00;-17125.47;5033031;28;20029;-74
2023/09/25 02:40:31;;;;;;;4.85;3.55;;;;;;;-148.88;100.00;-17125.47;5031641;28;20053;-74
2023/09/25 02:42:57;;;;;;;5.22;3.70;;;;;;;-148.88;100.00;-17125.47;5033109;28;20072;-74
2023/09/25 02:45:22;;;;;;;6.25;3.95;;;;;;;-148.88;100.00;-17125.47;5033232;28;20057;-74
2023/09/25 02:47:48;;;;;;;4.80;3.38;;;;;;;-148.88;100.00;-17125.47;5031604;28;20060;-74
2023/09/25 02:50:14;;;;;;;4.45;3.63;;;;;;;-148.88;100.00;-17125.47;5032954;28;20097;-74
2023/09/25 02:52:42;;;;;;;6.00;3.90;;;;;;;-148.88;100.00;-17125.47;5032921;28;20468;-74
2023/09/25 02:55:08;;;;;;;4.60;3.42;;;;;;;-148.88;100.00;-17125.47;5032797;28;20102;-74
2023/09/25 02:57:33;;;;;;;4.88;3.72;;;;;;;-148.88;100.00;-17125.47;5032774;28;20434;-74
2023/09/25 02:59:59;;;;;;;4.55;3.45;;;;;;;-148.88;100.00;-17125.47;5032601;28;20018;-75
2023/09/25 03:02:25;;;;;;;4.20;3.05;;;;;;;-148.88;100.00;-17125.47;5032971;28;20025;-74
2023/09/25 03:04:51;;;;;;;5.40;4.00;;;;;;;-148.88;100.00;-17125.47;5032488;28;20025;-74
2023/09/25 03:07:17;;;;;;;5.40;3.42;;;;;;;-148.88;100.00;-17125.47;5032477;28;20025;-74
2023/09/25 03:09:42;;;;;;;4.32;3.63;;;;;;;-148.88;100.00;-17125.47;5031173;28;20033;-74
2023/09/25 03:12:08;;;;;;;4.40;3.47;;;;;;;-148.88;100.00;-17125.47;5031349;28;20018;-74
2023/09/25 03:14:33;;;;;;;4.90;3.63;;;;;;;-148.88;100.00;-17125.47;5031079;28;20499;-74
2023/09/25 03:16:59;;;;;;;5.93;3.67;;;;;;;-148.88;100.00;-17125.47;5032492;28;20025;-74
2023/09/25 03:19:24;;;;;;;6.00;4.03;;;;;;;-148.88;100.00;-17125.47;5032260;28;20096;-74
2023/09/25 03:21:49;;;;;;;7.30;3.97;;;;;;;-148.88;100.00;-17125.47;5032574;28;20397;-74
2023/09/25 03:24:15;;;;;;;4.55;3.70;;;;;;;-148.88;100.00;-17125.47;5032466;28;20389;-74
2023/09/25 03:26:41;;;;;;;4.15;3.60;;;;;;;-148.88;100.00;-17125.47;5032411;28;20057;-74
2023/09/25 03:29:06;;;;;;;7.55;4.10;;;;;;;-148.88;100.00;-17125.47;5032382;28;20072;-74
2023/09/25 03:31:33;;;;;;;5.13;3.88;;;;;;;-148.88;100.00;-17125.47;5030732;28;20064;-74
2023/09/25 03:33:58;;;;;;;4.35;3.60;;;;;;;-148.88;100.00;-17125.47;5032431;28;20045;-74
2023/09/25 03:36:24;;;;;;;5.55;3.90;;;;;;;-148.88;100.00;-17125.47;5032274;28;20375;-74
2023/09/25 03:38:49;;;;;;;5.10;3.70;;;;;;;-148.88;100.00;-17125.47;5032595;28;20025;-74
2023/09/25 03:41:15;;;;;;;6.90;4.07;;;;;;;-148.88;100.00;-17125.47;5032163;28;20021;-74
2023/09/25 03:43:40;;;;;;;4.50;3.75;;;;;;;-148.88;100.00;-17125.47;5032265;28;20405;-74
2023/09/25 03:46:06;;;;;;;4.78;3.45;;;;;;;-148.88;100.00;-17125.47;5032449;28;20032;-74
2023/09/25 03:48:31;;;;;;;4.70;3.88;;;;;;;-148.88;100.00;-17125.47;5030705;28;20036;-74
2023/09/25 03:50:56;;;;;;;4.43;3.65;;;;;;;-148.88;100.00;-17125.47;5032682;28;20034;-74
2023/09/25 03:53:22;;;;;;;4.70;3.58;;;;;;;-148.88;100.00;-17125.47;5032038;28;20398;-74
2023/09/25 03:55:48;;;;;;;4.72;3.17;;;;;;;-148.88;100.00;-17125.47;5030793;28;20478;-74
2023/09/25 03:58:13;;;;;;;5.45;3.88;;;;;;;-148.88;100.00;-17125.47;5030707;28;20025;-74
2023/09/25 04:00:40;;;;;;;5.10;3.95;;;;;;;-148.88;100.00;-17125.47;5032307;28;20091;-74
2023/09/25 04:03:05;;;;;;;4.65;3.63;;;;;;;-148.88;100.00;-17125.47;5030664;28;20433;-74
2023/09/25 04:05:33;;;;;;;5.30;3.78;;;;;;;-148.88;100.00;-17125.47;5031839;28;20077;-74
2023/09/25 04:07:58;;;;;;;4.60;3.60;;;;;;;-148.88;100.00;-17125.47;5030472;28;20104;-74
2023/09/25 04:10:27;;;;;;;5.35;3.95;;;;;;;-148.88;100.00;-17125.47;5032295;28;20458;-74
2023/09/25 04:12:53;;;;;;;5.18;3.60;;;;;;;-148.88;100.00;-17125.47;5031918;28;20397;-74
2023/09/25 04:15:22;;;;;;;4.30;3.20;;;;;;;-148.88;100.00;-17125.47;5032004;28;20022;-74
2023/09/25 04:17:48;;;;;;;4.32;3.53;;;;;;;-148.88;100.00;-17125.47;5031714;28;20017;-74
2023/09/25 04:20:17;;;;;;;5.93;3.80;;;;;;;-148.88;100.00;-17125.47;5030593;28;20025;-74
2023/09/25 04:22:43;;;;;;;5.47;3.60;;;;;;;-148.88;100.00;-17125.47;5031830;28;20025;-74
2023/09/25 04:25:15;;;;;;;5.72;4.00;;;;;;;-148.88;100.00;-17125.47;5030410;28;20346;-74
2023/09/25 04:27:41;;;;;;;5.38;3.95;;;;;;;-148.88;100.00;-17125.47;5032075;28;20510;-74
2023/09/25 04:30:08;;;;;;;5.03;3.70;;;;;;;-148.88;100.00;-17125.47;5030417;28;20124;-74
2023/09/25 04:32:34;;;;;;;4.35;3.63;;;;;;;-148.88;100.00;-17125.47;5031729;28;20053;-74
2023/09/25 04:34:59;;;;;;;6.43;4.05;;;;;;;-148.88;100.00;-17125.47;5030387;28;20060;-76
2023/09/25 04:37:25;;;;;;;5.80;3.85;;;;;;;-148.88;100.00;-17125.47;5033713;28;20033;-76
2023/09/25 04:39:50;;;;;;;4.68;3.75;;;;;;;-148.88;100.00;-17125.47;5032049;28;20022;-75
2023/09/25 04:42:16;;;;;;;4.63;3.45;;;;;;;-148.88;100.00;-17125.47;5032126;28;20086;-75
2023/09/25 04:44:41;;;;;;;6.50;3.90;;;;;;;-148.88;100.00;-17125.47;5033750;28;20017;-75
2023/09/25 04:47:06;;;;;;;4.32;3.92;;;;;;;-148.88;100.00;-17125.47;5035767;28;20079;-74
2023/09/25 04:49:32;;;;;;;5.20;3.50;;;;;;;-148.88;100.00;-17125.47;5035213;28;20025;-74
2023/09/25 04:51:57;;;;;;;4.55;3.92;;;;;;;-148.88;100.00;-17125.47;5035596;28;20063;-74
2023/09/25 04:54:23;;;;;;;6.60;3.67;;;;;;;-148.88;100.00;-17125.47;5035891;28;20018;-74
2023/09/25 04:56:49;;;;;;;4.95;3.65;;;;;;;-148.88;100.00;-17125.47;5036129;28;20040;-74
2023/09/25 04:59:14;;;;;;;6.10;4.47;;;;;;;-148.88;100.00;-17125.47;5034309;28;20025;-74
2023/09/25 05:01:39;;;;;;;6.10;4.47;;;;;;;-148.88;100.00;-17125.47;5035820;28;20032;-74
2023/09/25 05:04:05;;;;;;;4.65;3.92;;;;;;;-148.88;100.00;-17125.47;5034900;28;20097;-74
2023/09/25 05:06:31;;;;;;;5.95;3.75;;;;;;;-148.88;100.00;-17125.47;5035286;28;20040;-74
2023/09/25 05:08:56;;;;;;;5.13;4.00;;;;;;;-148.88;100.00;-17125.47;5035374;28;20108;-74
2023/09/25 05:11:22;;;;;;;5.05;4.03;;;;;;;-148.88;100.00;-17125.47;5035232;28;20017;-74
2023/09/25 05:13:49;;;;;;;5.53;4.50;;;;;;;-148.88;100.00;-17125.47;5034859;28;20057;-74
2023/09/25 05:16:15;;;;;;;5.18;4.10;;;;;;;-148.88;100.00;-17125.47;5035150;28;20079;-74
2023/09/25 05:18:41;;;;;;;6.97;4.18;;;;;;;-148.88;100.00;-17125.47;5064236;23;20057;-88
2023/09/25 05:21:06;;;;;;;5.88;4.15;;;;;;;-148.88;100.00;-17125.47;5035295;28;20487;-87
2023/09/25 05:23:32;;;;;;;4.85;4.05;;;;;;;-148.88;100.00;-17125.47;5035625;28;20108;-87
2023/09/25 05:26:01;;;;;;;5.57;4.50;;;;;;;-148.88;100.00;-17125.47;5034292;28;20021;-87
2023/09/25 05:28:26;;;;;;;5.60;4.32;;;;;;;-148.88;100.00;-17125.47;5035592;28;20496;-88
2023/09/25 05:30:56;;;;;;;5.68;4.40;;;;;;;-148.88;100.00;-17125.47;5035300;28;20037;-88
2023/09/25 05:33:21;;;;;;;5.13;4.28;;;;;;;-148.88;100.00;-17125.47;5035191;28;20052;-88
2023/09/25 05:35:47;;;;;;;5.30;4.78;;;;;;;-148.88;100.00;-17125.47;5035271;28;20017;-88
2023/09/25 05:38:13;;;;;;;5.82;4.57;;;;;;;-148.88;100.00;-17125.47;5036064;28;20025;-87
2023/09/25 05:40:39;;;;;;;6.72;4.30;;;;;;;-148.88;100.00;-17125.47;5036277;28;20446;-89
2023/09/25 05:43:04;;;;;;;6.30;4.20;;;;;;;-148.88;100.00;-17125.47;5036184;28;20104;-88
2023/09/25 05:45:33;;;;;;;7.95;4.63;;;;;;;-148.88;100.00;-17125.47;5035806;28;20036;-86
2023/09/25 05:47:58;;;;;;;6.05;4.55;;;;;;;-148.88;100.00;-17125.47;5035336;28;20022;-87
2023/09/25 05:50:26;;;;;;;6.53;4.70;;;;;;;-148.88;100.00;-17125.47;5035109;28;20043;-87
2023/09/25 05:52:51;;;;;;;5.55;4.47;;;;;;;-148.88;100.00;-17125.47;5034988;28;20044;-85
2023/09/25 05:55:17;;;;;;;5.93;4.05;;;;;;;-148.88;100.00;-17125.47;5034735;28;20371;-86
2023/09/25 05:57:42;;;;;;;5.20;4.70;;;;;;;-148.88;100.00;-17125.47;5035378;28;20044;-87
2023/09/25 06:00:12;;;;;;;5.97;4.40;;;;;;;-148.88;100.00;-17125.47;5034968;28;20053;-87
2023/09/25 06:02:38;;;;;;;6.00;4.63;;;;;;;-148.88;100.00;-17125.47;5034956;28;20021;-87
2023/09/25 06:05:05;;;;;;;5.15;4.40;;;;;;;-148.88;100.00;-17125.47;5034748;28;20495;-88
2023/09/25 06:07:31;;;;;;;5.18;4.68;;;;;;;-148.88;100.00;-17125.47;5033559;28;20025;-87
2023/09/25 06:09:56;;;;;;;6.18;4.80;;;;;;;-148.88;100.00;-17125.47;5033219;28;20055;-86
2023/09/25 06:12:21;;;;;;;6.25;4.90;;;;;;;-148.88;100.00;-17125.47;5034492;28;20128;-87
2023/09/25 06:14:47;;;;;;;10.00;5.05;;;;;;;-148.88;100.00;-17125.47;5033161;28;20075;-84
2023/09/25 06:17:15;;;;;;;5.28;4.45;;;;;;;-148.88;100.00;-17125.47;5033191;28;20040;-86
2023/09/25 06:19:41;;;;;;;6.35;4.78;;;;;;;-148.88;100.00;-17125.47;5033495;28;20029;-85
2023/09/25 06:22:07;;;;;;;6.40;5.30;;;;;;;-148.88;100.00;-17125.47;5035789;28;20025;-86
2023/09/25 06:24:32;;;;;;;6.80;4.85;;;;;;;-148.88;100.00;-17125.47;5032684;28;20485;-88
2023/09/25 06:26:57;;;;;;;6.28;4.88;;;;;;;-148.88;100.00;-17125.47;5033030;28;20038;-89
2023/09/25 06:29:23;;;;;;;5.65;5.00;;;;;;;-148.88;100.00;-17125.47;5032611;28;20436;-88
2023/09/25 06:31:48;;;;;;;5.80;4.78;;;;;;;-148.88;100.00;-17125.47;5032678;28;20053;-89
2023/09/25 06:34:15;;;;;;;6.97;4.30;;;;;;;-148.88;100.00;-17125.47;5032626;28;20017;-89
2023/09/25 06:36:40;;;;;;;5.43;4.40;;;;;;;-148.88;100.00;-17125.47;5034193;28;20068;-88
2023/09/25 06:39:09;;;;;;;5.57;4.60;;;;;;;-148.88;100.00;-17125.47;5034322;28;20489;-89
2023/09/25 06:41:40;;;;;;;5.68;4.20;;;;;;;-148.88;100.00;-17125.47;5032967;28;20025;-89
2023/09/25 06:44:06;;;;;;;7.70;5.00;;;;;;;-148.88;100.00;-17125.47;5034305;28;20083;-90
2023/09/25 06:46:32;;;;;;;8.23;5.00;;;;;;;-148.88;100.00;-17125.47;5034205;28;20112;-90
2023/09/25 06:49:01;;;;;;;4.82;4.32;;;;;;;-148.88;100.00;-17125.47;5034505;28;20452;-90
2023/09/25 06:51:31;;;;;;;6.63;4.70;;;;;;;-148.88;100.00;-17125.47;5034378;28;20370;-87
2023/09/25 06:53:56;;;;;;;6.28;4.68;;;;;;;-148.88;100.00;-17125.47;5033695;28;20107;-89
2023/09/25 06:56:22;;;;;;;5.32;4.50;;;;;;;-148.88;100.00;-17125.47;5032460;28;20441;-85
2023/09/25 06:58:51;;;;;;;6.22;4.20;;;;;;;-148.88;100.00;-17125.47;5032083;28;20021;-89
2023/09/25 07:01:18;;;;;;;4.78;4.28;;;;;;;-148.88;100.00;-17125.47;5031872;28;20573;-87
2023/09/25 07:03:52;;;;;;;5.90;4.30;;;;;;;-148.88;100.00;-17125.47;5032240;28;20596;-88
2023/09/25 07:06:23;;;;;;;5.82;4.38;;;;;;;-148.88;100.00;-17125.47;5031390;28;20018;-88
2023/09/25 07:08:57;;;;;;;6.18;4.10;;;;;;;-148.88;100.00;-17125.47;5031879;28;20040;-87
2023/09/25 07:11:25;;;;;;;4.88;3.65;;;;;;;-148.88;100.00;-17125.47;5031689;28;20390;-87
2023/09/25 07:13:54;;;;;;;5.05;4.15;;;;;;;-148.88;100.00;-17125.47;5031681;28;20195;-88
2023/09/25 07:16:19;;;;;;;6.30;3.85;;;;;;;-148.88;100.00;-17125.47;5032369;28;20029;-88
2023/09/25 07:18:47;;;;;;;4.53;3.80;;;;;;;-148.88;100.00;-17125.47;5032912;28;20048;-87
2023/09/25 07:21:13;;;;;;;5.80;4.00;;;;;;;-148.88;100.00;-17125.47;5032766;28;20114;-85
2023/09/25 07:23:38;;;;;;;5.35;4.18;;;;;;;-148.88;100.00;-17125.47;5032541;28;20461;-87
2023/09/25 07:26:09;;;;;;;6.95;4.40;;;;;;;-148.88;100.00;-17125.47;5032927;28;20063;-85
2023/09/25 07:28:36;;;;;;;5.43;3.95;;;;;;;-148.88;100.00;-17125.47;5033689;28;20029;-88
2023/09/25 07:31:02;;;;;;;5.38;3.97;;;;;;;-148.88;100.00;-17125.47;5033455;28;20422;-86
2023/09/25 07:33:29;;;;;;;5.28;3.75;;;;;;;-148.88;100.00;-17125.47;5033254;28;20374;-89
2023/09/25 07:35:55;;;;;;;4.30;3.58;;;;;;;-148.88;100.00;-17125.47;5031970;28;20021;-87
2023/09/25 07:38:21;;;;;;;6.07;3.65;;;;;;;-148.88;100.00;-17125.47;5032039;28;20028;-87
2023/09/25 07:40:47;;;;;;;4.55;3.50;;;;;;;-148.88;100.00;-17125.47;5032507;28;20051;-89
2023/09/25 07:43:12;;;;;;;5.95;3.08;;;;;;;-148.88;100.00;-17125.47;5032934;28;20032;-86
2023/09/25 07:45:38;;;;;;;4.47;3.10;;;;;;;-148.88;100.00;-17125.47;5032700;28;20381;-87
2023/09/25 07:48:09;;;;;;;4.25;3.50;;;;;;;-148.88;100.00;-17125.47;5033004;28;20034;-86
2023/09/25 07:50:58;;;;;;;5.60;3.20;;;;;;;-148.88;100.00;-17125.47;5032985;28;20022;-88
2023/09/25 07:53:24;;;;;;;4.13;3.05;;;;;;;-148.88;100.00;-17125.47;5032282;28;20363;-87
2023/09/25 07:55:51;;;;;;;5.03;3.35;;;;;;;-148.88;100.00;-17125.47;5031646;28;20022;-87
2023/09/25 07:58:16;;;;;;;5.18;3.63;;;;;;;-148.88;100.00;-17125.47;5031516;28;20075;-87
2023/09/25 08:00:44;;;;;;;6.47;2.92;;;;;;;-148.88;100.00;-17125.47;5032186;28;20033;-88
2023/09/25 08:03:14;;;;;;;7.82;3.22;;;;;;;-148.88;100.00;-17125.47;5031509;28;20083;-88
2023/09/25 08:05:40;;;;;;;5.18;3.20;;;;;;;-148.88;100.00;-17125.47;5031599;28;20021;-90
2023/09/25 08:08:06;;;;;;;4.00;3.00;;;;;;;-148.88;100.00;-17125.47;5031585;28;20036;-88
2023/09/25 08:10:33;;;;;;;4.00;2.85;;;;;;;-148.88;100.00;-17125.47;5033307;28;20057;-86
2023/09/25 08:12:59;;;;;;;5.43;3.30;;;;;;;-148.88;100.00;-17125.47;5031819;28;20053;-87
2023/09/25 08:15:24;;;;;;;3.20;2.65;;;;;;;-148.88;100.00;-17125.47;5032028;28;20457;-87
2023/09/25 08:17:50;;;;;;;4.85;3.00;;;;;;;-148.88;100.00;-17125.47;5032507;28;20176;-88
2023/09/25 08:20:22;;;;;;;3.67;2.95;;;;;;;-148.88;100.00;-17125.47;5034311;28;20067;-89
2023/09/25 08:22:52;;;;;;;5.75;2.85;;;;;;;-148.88;100.00;-17125.47;5036651;28;20025;-88
2023/09/25 08:25:18;;;;;;;4.28;2.78;;;;;;;-148.88;100.00;-17125.47;5035430;28;20014;-87
2023/09/25 08:27:43;;;;;;;7.55;3.30;;;;;;;-148.88;100.00;-17125.47;5035062;28;20025;-90
2023/09/25 08:30:26;;;;;;;4.28;2.60;;;;;;;-148.88;100.00;-17125.47;5035417;28;20108;-88
2023/09/25 08:33:01;;;;;;;3.20;2.55;;;;;;;-148.88;100.00;-17125.47;5037239;28;20056;-86
2023/09/25 08:35:47;;;;;;;3.25;2.50;;;;;;;-148.88;100.00;-17125.47;5037294;28;20084;-88
2023/09/25 08:38:13;;;;;;;4.85;2.80;;;;;;;-148.88;100.00;-17125.47;5033008;28;20033;-87
2023/09/25 08:40:47;;;;;;;4.47;2.50;;;;;;;-148.88;100.00;-17125.47;5035298;28;20025;-89
2023/09/25 08:43:13;;;;;;;6.85;2.67;;;;;;;-148.88;100.00;-17125.47;5035546;28;20060;-87
2023/09/25 08:45:40;;;;;;;4.05;2.38;;;;;;;-148.88;100.00;-17125.47;5036467;28;20021;-89
2023/09/25 08:48:08;;;;;;;4.78;2.40;;;;;;;-148.88;99.85;-17125.47;5037416;28;20021;-92
2023/09/25 08:50:34;;;;;;;3.72;2.50;;;;;;;-148.88;99.25;-17125.47;5036886;28;20029;-92
2023/09/25 08:52:59;;;;;;;5.25;2.80;;;;;;;-148.88;100.00;-17125.47;5036128;28;20034;-90
2023/09/25 08:55:26;;;;;;;4.22;2.72;;;;;;;-148.88;99.74;-17125.47;5040546;28;20022;-89
2023/09/25 08:57:52;;;;;;;5.28;2.60;;;;;;;-148.88;97.56;-17125.47;5034469;28;20179;-89
2023/09/25 09:00:18;;;;;;;3.85;2.53;;;;;;;-148.88;98.11;-17125.47;5034238;28;20026;-88
2023/09/25 09:02:43;;;;;;;2.83;1.90;;;;;;;-148.88;100.00;-17125.47;5034189;28;20037;-90
2023/09/25 09:05:13;;;;;;;4.18;1.85;;;;;;;-148.88;93.33;-17125.47;5035396;28;20370;-88
2023/09/25 09:07:57;;;;;;;4.00;1.67;;;;;;;-148.88;91.39;-17125.47;5034999;28;20048;-89
2023/09/25 09:10:22;;;;;;;2.92;1.60;;;;;;;-148.88;86.17;-17125.47;5035260;28;20469;-88
2023/09/25 09:12:56;;;;;;;2.33;1.60;;;;;;;-148.88;86.87;-17125.47;5035269;28;20033;-90
2023/09/25 09:16:15;;;;;;;3.17;1.65;;;;;;;-148.88;87.54;-17125.47;5035625;28;20043;-87
2023/09/25 09:18:41;;;;;;;1.83;1.42;;;;;;;-148.88;86.67;-17125.47;4955530;29;20047;-89
2023/09/25 09:21:24;;;;;;;4.10;1.52;;;;;;;-148.88;87.65;-17125.47;5014366;28;20033;-88
2023/09/25 09:23:53;;;;;;;2.95;1.80;;;;;;;-148.88;84.90;-17125.47;5035079;28;20057;-90
2023/09/25 09:26:19;;;;;;;2.90;1.50;;;;;;;-148.88;84.34;-17125.47;5035849;28;20088;-88
2023/09/25 09:28:46;;;;;;;3.15;1.58;;;;;;;-148.88;81.36;-17125.47;5035453;28;20402;-90
2023/09/25 09:31:14;;;;;;;2.72;1.30;;;;;;;-148.88;78.90;-17125.47;5034275;28;20026;-88
2023/09/25 09:33:42;;;;;;;3.75;1.60;;;;;;;-148.88;81.51;-17125.47;5035532;28;20394;-90
2023/09/25 09:36:12;;;;;;;2.85;1.35;;;;;;;-148.88;78.54;-17125.47;5035054;28;20052;-89
2023/09/25 09:38:41;;;;;;;3.45;1.38;;;;;;;-148.88;79.04;-17125.47;5035042;28;20017;-88
2023/09/25 09:41:08;;;;;;;2.40;1.33;;;;;;;-148.88;78.57;-17125.47;5035160;28;20100;-91
2023/09/25 09:43:34;;;;;;;2.10;1.20;;;;;;;-148.88;76.07;-17125.47;5035196;28;20470;-90
2023/09/25 09:46:01;;;;;;;2.58;1.20;;;;;;;-148.88;77.06;-17125.47;5034697;28;20430;-90
2023/09/25 09:48:29;;;;;;;3.15;1.30;;;;;;;-148.88;73.43;-17125.47;5034004;28;20036;-88
2023/09/25 09:50:59;;;;;;;2.90;1.88;;;;;;;-148.88;73.03;-17125.47;5034738;28;20029;-89
2023/09/25 09:53:28;;;;;;;2.25;1.30;;;;;;;-148.88;73.48;-17125.47;5034928;28;20040;-89
2023/09/25 09:55:55;;;;;;;2.72;1.40;;;;;;;-148.88;73.44;-17125.47;5035106;28;20405;-90
2023/09/25 09:58:23;;;;;;;2.28;1.30;;;;;;;-148.88;71.53;-17125.47;5035316;28;20029;-90
2023/09/25 10:00:50;;;;;;;2.38;1.40;;;;;;;-148.88;76.01;-17125.47;5034240;28;20094;-91
2023/09/25 10:03:15;;;;;;;3.33;1.15;;;;;;;-148.88;66.56;-17125.47;5035305;28;20017;-90
2023/09/25 10:05:45;;;;;;;2.13;1.20;;;;;;;-148.88;71.20;-17125.47;5035658;28;20028;-92
2023/09/25 10:08:11;;;;;;;2.70;1.40;;;;;;;-148.88;66.94;-17125.47;5037789;28;20446;-91
2023/09/25 10:10:38;;;;;;;2.35;1.30;;;;;;;-148.88;64.68;-17125.47;5034864;28;20551;-89
2023/09/25 10:13:08;;;;;;;2.28;1.40;;;;;;;-148.88;67.99;-17125.47;5037330;28;20022;-91
2023/09/25 10:15:42;;;;;;;2.35;1.10;;;;;;;-148.88;65.10;-17125.47;5035082;28;20087;-92
2023/09/25 10:18:07;;;;;;;;;;;;;;;-148.88;67.81;-17125.47;5035158;28;20448;-92
2023/09/25 10:20:33;;;;;;;2.58;1.45;;;;;;;-148.88;66.20;-17125.47;5038024;28;19956;-91
2023/09/25 10:23:18;;;;;;;2.85;1.30;;;;;;;-148.88;63.28;-17125.47;5040459;28;20432;-90
2023/09/25 10:25:55;;;;;;;2.22;1.20;;;;;;;-148.88;66.11;-17125.47;5035901;28;20026;-91
2023/09/25 10:28:24;;;;;;;2.15;1.23;;;;;;;-148.88;64.43;-17125.47;5035375;28;20033;-91
2023/09/25 10:30:51;;;;;;;3.55;1.38;;;;;;;-148.88;63.20;-17125.47;5034958;28;20551;-89
2023/09/25 10:33:18;;;;;;;1.90;1.10;;;;;;;-148.88;61.89;-17125.47;5050910;28;20018;-91
2023/09/25 10:35:47;;;;;;;2.28;1.23;;;;;;;-148.88;58.73;-17125.47;5042654;28;20022;-90
2023/09/25 10:38:19;;;;;;;2.78;1.38;;;;;;;-148.88;58.89;-17125.47;5047259;28;20024;-91
2023/09/25 10:40:55;;;;;;;3.70;1.30;;;;;;;-148.88;60.18;-17125.47;5034934;28;20095;-90
2023/09/25 10:43:25;;;;;;;4.30;1.23;;;;;;;-148.88;58.42;-17125.47;5033613;28;20106;-88
2023/09/25 10:45:59;;;;;;;2.00;1.20;;;;;;;-148.88;61.65;-17125.47;5035671;28;20021;-90
2023/09/25 10:48:26;;;;;;;3.97;1.08;;;;;;;-148.88;61.45;-17125.47;5039727;28;20040;-92
2023/09/25 10:50:59;;;;;;;3.15;1.17;;;;;;;-148.88;56.39;-17125.47;5033240;28;20111;-90
2023/09/25 10:53:26;;;;;;;2.67;1.35;;;;;;;-148.88;57.01;-17125.47;5032411;28;20049;-88
2023/09/25 10:55:52;;;;;;;2.55;1.30;;;;;;;-148.88;56.54;-17125.47;5033130;28;20382;-92
2023/09/25 10:58:18;;;;;;;2.90;1.30;;;;;;;-148.88;54.83;-17125.47;5033523;28;20037;-91
2023/09/25 11:00:45;;;;;;;2.53;1.33;;;;;;;-148.88;53.45;-17125.47;5034093;28;20064;-91
2023/09/25 11:03:10;;;;;;;8.77;1.58;;;;;;;-148.88;56.20;-17125.47;5033841;28;20533;-91
2023/09/25 11:05:40;;;;;;;2.47;1.38;;;;;;;-148.88;57.04;-17125.47;5034477;28;20116;-92